sensor_id;sensor_type;location;lat;lon;timestamp;P1;durP1;ratioP1;P2;durP2;ratioP2
31238;SDS011;17871;31.584;74.450;2023-12-20T00:01:48;206.80;;;96.10;;
31238;SDS011;17871;31.584;74.450;2023-12-20T00:04:18;210.27;;;95.57;;
31238;SDS011;17871;31.584;74.450;2023-12-20T00:06:47;185.73;;;91.82;;
31238;SDS011;17871;31.584;74.450;2023-12-20T00:09:17;198.60;;;98.32;;
31238;SDS011;17871;31.584;74.450;2023-12-20T00:11:46;184.10;;;92.80;;
31238;SDS011;17871;31.584;74.450;2023-12-20T00:14:17;203.57;;;92.78;;
31238;SDS011;17871;31.584;74.450;2023-12-20T00:16:46;205.75;;;95.90;;
31238;SDS011;17871;31.584;74.450;2023-12-20T00:19:16;201.18;;;99.03;;
31238;SDS011;17871;31.584;74.450;2023-12-20T00:21:46;212.32;;;95.22;;
31238;SDS011;17871;31.584;74.450;2023-12-20T00:24:15;207.25;;;93.90;;
31238;SDS011;17871;31.584;74.450;2023-12-20T00:26:45;235.88;;;94.72;;
31238;SDS011;17871;31.584;74.450;2023-12-20T00:29:16;220.48;;;98.10;;
31238;SDS011;17871;31.584;74.450;2023-12-20T00:31:46;225.07;;;95.32;;
31238;SDS011;17871;31.584;74.450;2023-12-20T00:34:15;220.15;;;91.88;;
31238;SDS011;17871;31.584;74.450;2023-12-20T00:36:45;222.68;;;95.75;;
31238;SDS011;17871;31.584;74.450;2023-12-20T00:39:14;208.85;;;92.40;;
31238;SDS011;17871;31.584;74.450;2023-12-20T00:41:44;213.82;;;95.82;;
31238;SDS011;17871;31.584;74.450;2023-12-20T00:44:14;224.57;;;96.43;;
31238;SDS011;17871;31.584;74.450;2023-12-20T00:46:43;208.82;;;97.28;;
31238;SDS011;17871;31.584;74.450;2023-12-20T00:49:13;230.73;;;109.95;;
31238;SDS011;17871;31.584;74.450;2023-12-20T00:51:42;245.13;;;114.53;;
31238;SDS011;17871;31.584;74.450;2023-12-20T00:54:14;224.63;;;105.32;;
31238;SDS011;17871;31.584;74.450;2023-12-20T00:56:44;228.35;;;103.45;;
31238;SDS011;17871;31.584;74.450;2023-12-20T00:59:14;241.75;;;105.80;;
31238;SDS011;17871;31.584;74.450;2023-12-20T01:01:43;210.65;;;99.40;;
31238;SDS011;17871;31.584;74.450;2023-12-20T01:04:13;219.68;;;100.72;;
31238;SDS011;17871;31.584;74.450;2023-12-20T01:06:42;209.82;;;99.65;;
31238;SDS011;17871;31.584;74.450;2023-12-20T01:09:12;216.07;;;100.25;;
31238;SDS011;17871;31.584;74.450;2023-12-20T01:11:42;211.10;;;98.95;;
31238;SDS011;17871;31.584;74.450;2023-12-20T01:14:12;199.15;;;101.63;;
31238;SDS011;17871;31.584;74.450;2023-12-20T01:16:41;210.52;;;99.85;;
31238;SDS011;17871;31.584;74.450;2023-12-20T01:19:12;215.20;;;105.18;;
31238;SDS011;17871;31.584;74.450;2023-12-20T01:21:43;207.95;;;103.38;;
31238;SDS011;17871;31.584;74.450;2023-12-20T01:24:14;219.20;;;97.82;;
31238;SDS011;17871;31.584;74.450;2023-12-20T01:26:43;206.95;;;99.60;;
31238;SDS011;17871;31.584;74.450;2023-12-20T01:29:14;203.00;;;95.57;;
31238;SDS011;17871;31.584;74.450;2023-12-20T01:31:45;195.90;;;91.60;;
31238;SDS011;17871;31.584;74.450;2023-12-20T01:34:14;194.18;;;94.60;;
31238;SDS011;17871;31.584;74.450;2023-12-20T01:36:44;191.82;;;89.82;;
31238;SDS011;17871;31.584;74.450;2023-12-20T01:39:14;203.25;;;92.85;;
31238;SDS011;17871;31.584;74.450;2023-12-20T01:41:54;191.38;;;90.30;;
31238;SDS011;17871;31.584;74.450;2023-12-20T01:44:23;200.82;;;93.43;;
31238;SDS011;17871;31.584;74.450;2023-12-20T01:46:53;196.02;;;95.13;;
31238;SDS011;17871;31.584;74.450;2023-12-20T01:49:23;193.20;;;92.88;;
31238;SDS011;17871;31.584;74.450;2023-12-20T01:51:53;200.88;;;97.60;;
31238;SDS011;17871;31.584;74.450;2023-12-20T01:54:22;203.25;;;96.80;;
31238;SDS011;17871;31.584;74.450;2023-12-20T01:56:52;188.98;;;92.35;;
31238;SDS011;17871;31.584;74.450;2023-12-20T01:59:21;203.50;;;98.38;;
31238;SDS011;17871;31.584;74.450;2023-12-20T02:01:50;214.13;;;95.88;;
31238;SDS011;17871;31.584;74.450;2023-12-20T02:04:20;191.38;;;92.38;;
31238;SDS011;17871;31.584;74.450;2023-12-20T02:06:49;214.15;;;95.60;;
31238;SDS011;17871;31.584;74.450;2023-12-20T02:09:22;219.23;;;112.10;;
31238;SDS011;17871;31.584;74.450;2023-12-20T02:11:51;209.32;;;102.47;;
31238;SDS011;17871;31.584;74.450;2023-12-20T02:14:20;245.63;;;109.28;;
31238;SDS011;17871;31.584;74.450;2023-12-20T02:16:50;280.35;;;121.25;;
31238;SDS011;17871;31.584;74.450;2023-12-20T02:19:20;235.10;;;107.82;;
31238;SDS011;17871;31.584;74.450;2023-12-20T02:21:49;212.68;;;99.45;;
31238;SDS011;17871;31.584;74.450;2023-12-20T02:24:19;221.10;;;101.03;;
31238;SDS011;17871;31.584;74.450;2023-12-20T02:26:48;208.98;;;98.78;;
31238;SDS011;17871;31.584;74.450;2023-12-20T02:29:17;194.02;;;96.72;;
31238;SDS011;17871;31.584;74.450;2023-12-20T02:31:47;203.43;;;99.10;;
31238;SDS011;17871;31.584;74.450;2023-12-20T02:34:16;225.02;;;103.50;;
31238;SDS011;17871;31.584;74.450;2023-12-20T02:36:46;221.63;;;109.75;;
31238;SDS011;17871;31.584;74.450;2023-12-20T02:39:16;218.93;;;104.25;;
31238;SDS011;17871;31.584;74.450;2023-12-20T02:41:45;231.60;;;104.45;;
31238;SDS011;17871;31.584;74.450;2023-12-20T02:44:15;230.75;;;106.97;;
31238;SDS011;17871;31.584;74.450;2023-12-20T02:46:44;238.25;;;110.93;;
31238;SDS011;17871;31.584;74.450;2023-12-20T02:49:15;238.60;;;112.70;;
31238;SDS011;17871;31.584;74.450;2023-12-20T02:51:45;251.55;;;115.30;;
31238;SDS011;17871;31.584;74.450;2023-12-20T02:54:15;230.18;;;111.95;;
31238;SDS011;17871;31.584;74.450;2023-12-20T02:56:45;227.82;;;112.47;;
31238;SDS011;17871;31.584;74.450;2023-12-20T02:59:15;220.70;;;109.45;;
31238;SDS011;17871;31.584;74.450;2023-12-20T03:01:45;243.77;;;108.97;;
31238;SDS011;17871;31.584;74.450;2023-12-20T03:04:15;220.65;;;105.88;;
31238;SDS011;17871;31.584;74.450;2023-12-20T03:06:45;241.00;;;111.78;;
31238;SDS011;17871;31.584;74.450;2023-12-20T03:09:16;307.23;;;138.95;;
31238;SDS011;17871;31.584;74.450;2023-12-20T03:11:45;247.65;;;117.05;;
31238;SDS011;17871;31.584;74.450;2023-12-20T03:14:14;240.70;;;114.68;;
31238;SDS011;17871;31.584;74.450;2023-12-20T03:16:49;261.45;;;114.60;;
31238;SDS011;17871;31.584;74.450;2023-12-20T03:19:19;215.50;;;108.65;;
31238;SDS011;17871;31.584;74.450;2023-12-20T03:21:48;221.20;;;110.70;;
31238;SDS011;17871;31.584;74.450;2023-12-20T03:24:17;229.52;;;112.88;;
31238;SDS011;17871;31.584;74.450;2023-12-20T03:26:47;225.38;;;109.15;;
31238;SDS011;17871;31.584;74.450;2023-12-20T03:29:16;232.57;;;111.03;;
31238;SDS011;17871;31.584;74.450;2023-12-20T03:31:45;229.18;;;109.13;;
31238;SDS011;17871;31.584;74.450;2023-12-20T03:34:15;216.18;;;110.15;;
31238;SDS011;17871;31.584;74.450;2023-12-20T03:36:45;211.57;;;106.40;;
31238;SDS011;17871;31.584;74.450;2023-12-20T03:39:16;233.18;;;107.50;;
31238;SDS011;17871;31.584;74.450;2023-12-20T03:41:45;261.50;;;113.80;;
31238;SDS011;17871;31.584;74.450;2023-12-20T03:44:15;227.40;;;111.05;;
31238;SDS011;17871;31.584;74.450;2023-12-20T03:46:45;227.85;;;110.88;;
31238;SDS011;17871;31.584;74.450;2023-12-20T03:49:15;227.50;;;112.50;;
31238;SDS011;17871;31.584;74.450;2023-12-20T03:51:45;253.25;;;114.75;;
31238;SDS011;17871;31.584;74.450;2023-12-20T03:54:14;231.43;;;112.45;;
31238;SDS011;17871;31.584;74.450;2023-12-20T03:56:43;275.83;;;110.22;;
31238;SDS011;17871;31.584;74.450;2023-12-20T03:59:14;277.45;;;111.20;;
31238;SDS011;17871;31.584;74.450;2023-12-20T04:01:43;251.52;;;114.57;;
31238;SDS011;17871;31.584;74.450;2023-12-20T04:04:16;238.23;;;111.03;;
31238;SDS011;17871;31.584;74.450;2023-12-20T04:06:47;263.20;;;117.00;;
31238;SDS011;17871;31.584;74.450;2023-12-20T04:09:16;252.15;;;119.45;;
31238;SDS011;17871;31.584;74.450;2023-12-20T04:11:46;276.70;;;127.75;;
31238;SDS011;17871;31.584;74.450;2023-12-20T04:14:15;336.48;;;138.48;;
31238;SDS011;17871;31.584;74.450;2023-12-20T04:16:44;358.38;;;151.60;;
31238;SDS011;17871;31.584;74.450;2023-12-20T04:19:14;333.90;;;151.50;;
31238;SDS011;17871;31.584;74.450;2023-12-20T04:21:44;334.55;;;156.18;;
31238;SDS011;17871;31.584;74.450;2023-12-20T04:24:13;350.85;;;153.32;;
31238;SDS011;17871;31.584;74.450;2023-12-20T04:26:43;323.13;;;146.45;;
31238;SDS011;17871;31.584;74.450;2023-12-20T04:29:15;348.55;;;148.75;;
31238;SDS011;17871;31.584;74.450;2023-12-20T04:31:44;347.10;;;142.90;;
31238;SDS011;17871;31.584;74.450;2023-12-20T04:34:13;354.58;;;137.50;;
31238;SDS011;17871;31.584;74.450;2023-12-20T04:36:43;332.88;;;142.85;;
31238;SDS011;17871;31.584;74.450;2023-12-20T04:39:13;338.75;;;141.70;;
31238;SDS011;17871;31.584;74.450;2023-12-20T04:41:46;343.80;;;145.13;;
31238;SDS011;17871;31.584;74.450;2023-12-20T04:44:16;322.65;;;141.63;;
31238;SDS011;17871;31.584;74.450;2023-12-20T04:46:45;339.50;;;140.90;;
31238;SDS011;17871;31.584;74.450;2023-12-20T04:49:15;310.00;;;142.35;;
31238;SDS011;17871;31.584;74.450;2023-12-20T04:51:45;335.20;;;141.15;;
31238;SDS011;17871;31.584;74.450;2023-12-20T04:54:15;337.27;;;151.30;;
31238;SDS011;17871;31.584;74.450;2023-12-20T04:56:44;349.17;;;149.80;;
31238;SDS011;17871;31.584;74.450;2023-12-20T04:59:13;326.67;;;145.63;;
31238;SDS011;17871;31.584;74.450;2023-12-20T05:01:43;318.95;;;142.77;;
31238;SDS011;17871;31.584;74.450;2023-12-20T05:04:13;303.92;;;136.50;;
31238;SDS011;17871;31.584;74.450;2023-12-20T05:06:44;345.55;;;144.95;;
31238;SDS011;17871;31.584;74.450;2023-12-20T05:09:13;325.17;;;140.45;;
31238;SDS011;17871;31.584;74.450;2023-12-20T05:11:44;327.35;;;141.45;;
31238;SDS011;17871;31.584;74.450;2023-12-20T05:14:14;367.27;;;149.52;;
31238;SDS011;17871;31.584;74.450;2023-12-20T05:16:43;348.48;;;145.02;;
31238;SDS011;17871;31.584;74.450;2023-12-20T05:19:13;387.50;;;157.50;;
31238;SDS011;17871;31.584;74.450;2023-12-20T05:21:44;375.77;;;146.13;;
31238;SDS011;17871;31.584;74.450;2023-12-20T05:24:15;294.10;;;127.07;;
31238;SDS011;17871;31.584;74.450;2023-12-20T05:26:44;283.80;;;113.10;;
31238;SDS011;17871;31.584;74.450;2023-12-20T05:29:17;250.25;;;105.38;;
31238;SDS011;17871;31.584;74.450;2023-12-20T05:31:46;242.82;;;101.38;;
31238;SDS011;17871;31.584;74.450;2023-12-20T05:34:15;201.13;;;85.43;;
31238;SDS011;17871;31.584;74.450;2023-12-20T05:36:45;180.07;;;87.35;;
31238;SDS011;17871;31.584;74.450;2023-12-20T05:39:15;182.85;;;83.45;;
31238;SDS011;17871;31.584;74.450;2023-12-20T05:41:44;184.57;;;82.07;;
31238;SDS011;17871;31.584;74.450;2023-12-20T05:44:14;138.68;;;69.40;;
31238;SDS011;17871;31.584;74.450;2023-12-20T05:46:43;147.73;;;65.18;;
31238;SDS011;17871;31.584;74.450;2023-12-20T05:49:12;152.32;;;67.68;;
31238;SDS011;17871;31.584;74.450;2023-12-20T05:51:42;135.65;;;62.45;;
31238;SDS011;17871;31.584;74.450;2023-12-20T05:54:12;137.25;;;63.33;;
31238;SDS011;17871;31.584;74.450;2023-12-20T05:56:41;144.80;;;64.07;;
31238;SDS011;17871;31.584;74.450;2023-12-20T05:59:11;131.63;;;63.95;;
31238;SDS011;17871;31.584;74.450;2023-12-20T06:01:40;138.43;;;65.13;;
31238;SDS011;17871;31.584;74.450;2023-12-20T06:04:10;243.65;;;69.28;;
31238;SDS011;17871;31.584;74.450;2023-12-20T06:06:43;146.73;;;64.22;;
31238;SDS011;17871;31.584;74.450;2023-12-20T06:09:12;140.73;;;62.88;;
31238;SDS011;17871;31.584;74.450;2023-12-20T06:11:42;160.73;;;65.03;;
31238;SDS011;17871;31.584;74.450;2023-12-20T06:14:12;132.10;;;64.55;;
31238;SDS011;17871;31.584;74.450;2023-12-20T06:16:42;129.73;;;60.20;;
31238;SDS011;17871;31.584;74.450;2023-12-20T06:19:11;117.70;;;56.10;;
31238;SDS011;17871;31.584;74.450;2023-12-20T06:21:41;114.80;;;54.88;;
31238;SDS011;17871;31.584;74.450;2023-12-20T06:24:11;100.57;;;48.47;;
31238;SDS011;17871;31.584;74.450;2023-12-20T06:26:42;122.90;;;51.22;;
31238;SDS011;17871;31.584;74.450;2023-12-20T06:29:11;96.97;;;48.05;;
31238;SDS011;17871;31.584;74.450;2023-12-20T06:31:41;114.10;;;46.78;;
31238;SDS011;17871;31.584;74.450;2023-12-20T06:34:10;104.32;;;46.42;;
31238;SDS011;17871;31.584;74.450;2023-12-20T06:36:40;107.07;;;49.05;;
31238;SDS011;17871;31.584;74.450;2023-12-20T06:39:11;106.75;;;46.97;;
31238;SDS011;17871;31.584;74.450;2023-12-20T06:41:41;96.05;;;46.83;;
31238;SDS011;17871;31.584;74.450;2023-12-20T06:44:12;110.78;;;46.55;;
31238;SDS011;17871;31.584;74.450;2023-12-20T06:46:41;104.03;;;47.03;;
31238;SDS011;17871;31.584;74.450;2023-12-20T06:49:11;90.82;;;43.95;;
31238;SDS011;17871;31.584;74.450;2023-12-20T06:51:41;98.30;;;43.65;;
31238;SDS011;17871;31.584;74.450;2023-12-20T06:54:11;98.45;;;45.92;;
31238;SDS011;17871;31.584;74.450;2023-12-20T06:56:41;115.85;;;47.10;;
31238;SDS011;17871;31.584;74.450;2023-12-20T06:59:10;100.25;;;45.90;;
31238;SDS011;17871;31.584;74.450;2023-12-20T07:01:40;92.30;;;46.53;;
31238;SDS011;17871;31.584;74.450;2023-12-20T07:04:09;96.90;;;46.00;;
31238;SDS011;17871;31.584;74.450;2023-12-20T07:06:39;104.93;;;47.70;;
31238;SDS011;17871;31.584;74.450;2023-12-20T07:09:09;107.10;;;47.67;;
31238;SDS011;17871;31.584;74.450;2023-12-20T07:11:38;141.07;;;49.97;;
31238;SDS011;17871;31.584;74.450;2023-12-20T07:14:08;114.03;;;49.50;;
31238;SDS011;17871;31.584;74.450;2023-12-20T07:16:37;102.07;;;48.45;;
31238;SDS011;17871;31.584;74.450;2023-12-20T07:19:07;109.35;;;49.10;;
31238;SDS011;17871;31.584;74.450;2023-12-20T07:21:36;112.18;;;49.85;;
31238;SDS011;17871;31.584;74.450;2023-12-20T07:24:05;114.28;;;53.63;;
31238;SDS011;17871;31.584;74.450;2023-12-20T07:26:35;103.03;;;51.03;;
31238;SDS011;17871;31.584;74.450;2023-12-20T07:29:06;108.30;;;50.78;;
31238;SDS011;17871;31.584;74.450;2023-12-20T07:31:36;119.25;;;51.00;;
31238;SDS011;17871;31.584;74.450;2023-12-20T07:34:05;104.80;;;46.35;;
31238;SDS011;17871;31.584;74.450;2023-12-20T07:36:34;97.70;;;47.47;;
31238;SDS011;17871;31.584;74.450;2023-12-20T07:39:04;103.38;;;49.58;;
31238;SDS011;17871;31.584;74.450;2023-12-20T07:41:33;109.45;;;49.45;;
31238;SDS011;17871;31.584;74.450;2023-12-20T07:44:04;124.80;;;52.08;;
31238;SDS011;17871;31.584;74.450;2023-12-20T07:46:33;128.65;;;56.78;;
31238;SDS011;17871;31.584;74.450;2023-12-20T07:49:03;126.43;;;55.53;;
31238;SDS011;17871;31.584;74.450;2023-12-20T07:51:32;118.03;;;53.25;;
31238;SDS011;17871;31.584;74.450;2023-12-20T07:54:02;131.00;;;57.50;;
31238;SDS011;17871;31.584;74.450;2023-12-20T07:56:32;125.05;;;57.97;;
31238;SDS011;17871;31.584;74.450;2023-12-20T07:59:01;119.78;;;56.70;;
31238;SDS011;17871;31.584;74.450;2023-12-20T08:01:34;112.35;;;53.53;;
31238;SDS011;17871;31.584;74.450;2023-12-20T08:04:03;167.07;;;53.38;;
31238;SDS011;17871;31.584;74.450;2023-12-20T08:06:33;146.23;;;52.55;;
31238;SDS011;17871;31.584;74.450;2023-12-20T08:09:03;77.97;;;42.03;;
31238;SDS011;17871;31.584;74.450;2023-12-20T08:11:33;92.93;;;41.25;;
31238;SDS011;17871;31.584;74.450;2023-12-20T08:14:02;74.75;;;37.47;;
31238;SDS011;17871;31.584;74.450;2023-12-20T08:16:32;75.07;;;39.47;;
31238;SDS011;17871;31.584;74.450;2023-12-20T08:19:02;80.32;;;38.13;;
31238;SDS011;17871;31.584;74.450;2023-12-20T08:21:32;100.22;;;38.72;;
31238;SDS011;17871;31.584;74.450;2023-12-20T08:24:05;72.03;;;36.88;;
31238;SDS011;17871;31.584;74.450;2023-12-20T08:26:34;89.18;;;37.28;;
31238;SDS011;17871;31.584;74.450;2023-12-20T08:29:03;81.68;;;38.40;;
31238;SDS011;17871;31.584;74.450;2023-12-20T08:31:33;133.70;;;36.55;;
31238;SDS011;17871;31.584;74.450;2023-12-20T08:34:02;119.90;;;37.20;;
31238;SDS011;17871;31.584;74.450;2023-12-20T08:36:35;75.50;;;36.13;;
31238;SDS011;17871;31.584;74.450;2023-12-20T08:39:04;87.15;;;36.25;;
31238;SDS011;17871;31.584;74.450;2023-12-20T08:41:38;76.97;;;37.03;;
31238;SDS011;17871;31.584;74.450;2023-12-20T08:44:08;80.75;;;35.28;;
31238;SDS011;17871;31.584;74.450;2023-12-20T08:46:37;80.20;;;35.30;;
31238;SDS011;17871;31.584;74.450;2023-12-20T08:49:07;103.00;;;36.17;;
31238;SDS011;17871;31.584;74.450;2023-12-20T08:51:38;78.25;;;34.70;;
31238;SDS011;17871;31.584;74.450;2023-12-20T08:54:09;84.30;;;33.15;;
31238;SDS011;17871;31.584;74.450;2023-12-20T08:56:39;67.03;;;34.40;;
31238;SDS011;17871;31.584;74.450;2023-12-20T08:59:08;74.70;;;31.52;;
31238;SDS011;17871;31.584;74.450;2023-12-20T09:01:38;66.75;;;32.83;;
31238;SDS011;17871;31.584;74.450;2023-12-20T09:04:08;76.25;;;35.30;;
31238;SDS011;17871;31.584;74.450;2023-12-20T09:06:37;71.80;;;33.38;;
31238;SDS011;17871;31.584;74.450;2023-12-20T09:09:07;90.63;;;34.88;;
31238;SDS011;17871;31.584;74.450;2023-12-20T09:11:39;114.85;;;33.78;;
31238;SDS011;17871;31.584;74.450;2023-12-20T09:14:08;72.10;;;32.22;;
31238;SDS011;17871;31.584;74.450;2023-12-20T09:16:38;64.65;;;33.70;;
31238;SDS011;17871;31.584;74.450;2023-12-20T09:19:07;77.70;;;34.42;;
31238;SDS011;17871;31.584;74.450;2023-12-20T09:21:36;68.95;;;33.00;;
31238;SDS011;17871;31.584;74.450;2023-12-20T09:24:06;97.57;;;34.92;;
31238;SDS011;17871;31.584;74.450;2023-12-20T09:26:35;89.95;;;34.85;;
31238;SDS011;17871;31.584;74.450;2023-12-20T09:29:04;74.03;;;32.95;;
31238;SDS011;17871;31.584;74.450;2023-12-20T09:31:36;74.57;;;33.58;;
31238;SDS011;17871;31.584;74.450;2023-12-20T09:34:05;76.32;;;34.72;;
31238;SDS011;17871;31.584;74.450;2023-12-20T09:36:35;77.00;;;35.40;;
31238;SDS011;17871;31.584;74.450;2023-12-20T09:39:05;75.40;;;34.38;;
31238;SDS011;17871;31.584;74.450;2023-12-20T09:41:35;78.00;;;36.60;;
31238;SDS011;17871;31.584;74.450;2023-12-20T09:44:07;83.93;;;35.13;;
31238;SDS011;17871;31.584;74.450;2023-12-20T09:46:37;73.88;;;34.88;;
31238;SDS011;17871;31.584;74.450;2023-12-20T09:49:07;79.18;;;37.25;;
31238;SDS011;17871;31.584;74.450;2023-12-20T09:51:37;80.18;;;34.35;;
31238;SDS011;17871;31.584;74.450;2023-12-20T09:54:07;83.97;;;35.97;;
31238;SDS011;17871;31.584;74.450;2023-12-20T09:56:37;83.07;;;38.22;;
31238;SDS011;17871;31.584;74.450;2023-12-20T09:59:07;86.60;;;37.90;;
31238;SDS011;17871;31.584;74.450;2023-12-20T10:01:36;80.95;;;35.95;;
31238;SDS011;17871;31.584;74.450;2023-12-20T10:04:08;73.72;;;36.35;;
31238;SDS011;17871;31.584;74.450;2023-12-20T10:06:46;127.95;;;51.72;;
31238;SDS011;17871;31.584;74.450;2023-12-20T10:09:17;91.57;;;35.95;;
31238;SDS011;17871;31.584;74.450;2023-12-20T10:11:46;118.32;;;35.80;;
31238;SDS011;17871;31.584;74.450;2023-12-20T10:14:15;87.03;;;35.28;;
31238;SDS011;17871;31.584;74.450;2023-12-20T10:16:45;73.28;;;34.05;;
31238;SDS011;17871;31.584;74.450;2023-12-20T10:19:16;86.95;;;36.60;;
31238;SDS011;17871;31.584;74.450;2023-12-20T10:24:19;70.57;;;33.33;;
31238;SDS011;17871;31.584;74.450;2023-12-20T10:27:00;87.47;;;33.10;;
31238;SDS011;17871;31.584;74.450;2023-12-20T10:29:37;63.65;;;31.92;;
31238;SDS011;17871;31.584;74.450;2023-12-20T10:32:26;70.10;;;32.78;;
31238;SDS011;17871;31.584;74.450;2023-12-20T10:34:55;75.72;;;31.27;;
31238;SDS011;17871;31.584;74.450;2023-12-20T10:37:25;77.50;;;34.05;;
31238;SDS011;17871;31.584;74.450;2023-12-20T10:39:54;92.90;;;35.65;;
31238;SDS011;17871;31.584;74.450;2023-12-20T10:42:27;87.03;;;35.45;;
31238;SDS011;17871;31.584;74.450;2023-12-20T10:44:58;78.43;;;34.63;;
31238;SDS011;17871;31.584;74.450;2023-12-20T10:47:27;80.63;;;36.15;;
31238;SDS011;17871;31.584;74.450;2023-12-20T10:49:57;76.20;;;33.35;;
31238;SDS011;17871;31.584;74.450;2023-12-20T10:52:27;75.63;;;35.47;;
31238;SDS011;17871;31.584;74.450;2023-12-20T10:54:58;102.57;;;33.35;;
31238;SDS011;17871;31.584;74.450;2023-12-20T10:57:28;70.50;;;32.63;;
31238;SDS011;17871;31.584;74.450;2023-12-20T11:00:00;76.45;;;34.28;;
31238;SDS011;17871;31.584;74.450;2023-12-20T11:02:33;74.90;;;36.67;;
31238;SDS011;17871;31.584;74.450;2023-12-20T11:05:30;78.78;;;36.13;;
31238;SDS011;17871;31.584;74.450;2023-12-20T11:08:02;84.15;;;36.35;;
31238;SDS011;17871;31.584;74.450;2023-12-20T11:13:32;77.05;;;34.63;;
31238;SDS011;17871;31.584;74.450;2023-12-20T11:16:04;88.22;;;33.08;;
31238;SDS011;17871;31.584;74.450;2023-12-20T11:18:33;81.82;;;33.28;;
31238;SDS011;17871;31.584;74.450;2023-12-20T11:21:04;80.07;;;33.90;;
31238;SDS011;17871;31.584;74.450;2023-12-20T11:23:34;89.25;;;37.10;;
31238;SDS011;17871;31.584;74.450;2023-12-20T11:26:03;116.43;;;36.97;;
31238;SDS011;17871;31.584;74.450;2023-12-20T11:28:33;106.68;;;40.97;;
31238;SDS011;17871;31.584;74.450;2023-12-20T11:31:03;106.32;;;38.67;;
31238;SDS011;17871;31.584;74.450;2023-12-20T11:33:36;98.78;;;38.67;;
31238;SDS011;17871;31.584;74.450;2023-12-20T11:36:13;122.55;;;41.17;;
31238;SDS011;17871;31.584;74.450;2023-12-20T11:38:56;112.53;;;40.38;;
31238;SDS011;17871;31.584;74.450;2023-12-20T11:41:28;128.80;;;42.88;;
31238;SDS011;17871;31.584;74.450;2023-12-20T11:44:08;127.95;;;45.75;;
31238;SDS011;17871;31.584;74.450;2023-12-20T11:46:38;127.63;;;45.63;;
31238;SDS011;17871;31.584;74.450;2023-12-20T11:49:07;102.53;;;39.45;;
31238;SDS011;17871;31.584;74.450;2023-12-20T11:51:40;119.75;;;40.90;;
31238;SDS011;17871;31.584;74.450;2023-12-20T11:54:10;89.57;;;39.28;;
31238;SDS011;17871;31.584;74.450;2023-12-20T11:56:40;98.53;;;36.17;;
31238;SDS011;17871;31.584;74.450;2023-12-20T11:59:09;105.60;;;36.42;;
31238;SDS011;17871;31.584;74.450;2023-12-20T12:01:50;101.50;;;38.00;;
31238;SDS011;17871;31.584;74.450;2023-12-20T12:04:21;92.22;;;39.15;;
31238;SDS011;17871;31.584;74.450;2023-12-20T12:06:52;101.63;;;38.58;;
31238;SDS011;17871;31.584;74.450;2023-12-20T12:09:26;116.72;;;38.03;;
31238;SDS011;17871;31.584;74.450;2023-12-20T12:11:59;91.82;;;38.85;;
31238;SDS011;17871;31.584;74.450;2023-12-20T12:14:28;93.53;;;43.03;;
31238;SDS011;17871;31.584;74.450;2023-12-20T12:16:58;102.07;;;41.65;;
31238;SDS011;17871;31.584;74.450;2023-12-20T12:19:33;115.00;;;44.22;;
31238;SDS011;17871;31.584;74.450;2023-12-20T12:22:11;100.32;;;42.15;;
31238;SDS011;17871;31.584;74.450;2023-12-20T12:24:59;108.75;;;45.65;;
31238;SDS011;17871;31.584;74.450;2023-12-20T12:27:41;128.65;;;43.83;;
31238;SDS011;17871;31.584;74.450;2023-12-20T12:30:11;111.20;;;46.95;;
31238;SDS011;17871;31.584;74.450;2023-12-20T12:32:46;124.30;;;51.33;;
31238;SDS011;17871;31.584;74.450;2023-12-20T12:35:16;126.32;;;53.75;;
31238;SDS011;17871;31.584;74.450;2023-12-20T12:37:45;134.88;;;55.00;;
31238;SDS011;17871;31.584;74.450;2023-12-20T12:40:15;120.07;;;52.13;;
31238;SDS011;17871;31.584;74.450;2023-12-20T12:42:45;127.20;;;51.72;;
31238;SDS011;17871;31.584;74.450;2023-12-20T12:45:15;134.63;;;59.15;;
31238;SDS011;17871;31.584;74.450;2023-12-20T12:47:44;125.88;;;56.22;;
31238;SDS011;17871;31.584;74.450;2023-12-20T12:50:14;127.03;;;53.65;;
31238;SDS011;17871;31.584;74.450;2023-12-20T12:52:44;102.15;;;49.00;;
31238;SDS011;17871;31.584;74.450;2023-12-20T12:55:13;141.30;;;52.22;;
31238;SDS011;17871;31.584;74.450;2023-12-20T12:57:43;122.10;;;50.20;;
31238;SDS011;17871;31.584;74.450;2023-12-20T13:00:13;123.10;;;49.55;;
31238;SDS011;17871;31.584;74.450;2023-12-20T13:02:42;107.00;;;50.88;;
31238;SDS011;17871;31.584;74.450;2023-12-20T13:05:12;120.05;;;53.25;;
31238;SDS011;17871;31.584;74.450;2023-12-20T13:07:46;133.23;;;54.05;;
31238;SDS011;17871;31.584;74.450;2023-12-20T13:10:17;134.57;;;51.70;;
31238;SDS011;17871;31.584;74.450;2023-12-20T13:12:46;120.03;;;53.33;;
31238;SDS011;17871;31.584;74.450;2023-12-20T13:15:16;114.72;;;54.65;;
31238;SDS011;17871;31.584;74.450;2023-12-20T13:17:46;139.45;;;54.72;;
31238;SDS011;17871;31.584;74.450;2023-12-20T13:20:16;117.10;;;53.75;;
31238;SDS011;17871;31.584;74.450;2023-12-20T13:22:46;137.70;;;54.63;;
31238;SDS011;17871;31.584;74.450;2023-12-20T13:25:15;138.25;;;57.30;;
31238;SDS011;17871;31.584;74.450;2023-12-20T13:27:44;154.05;;;59.17;;
31238;SDS011;17871;31.584;74.450;2023-12-20T13:30:31;148.70;;;56.60;;
31238;SDS011;17871;31.584;74.450;2023-12-20T13:33:11;148.18;;;55.22;;
31238;SDS011;17871;31.584;74.450;2023-12-20T13:35:40;154.63;;;59.90;;
31238;SDS011;17871;31.584;74.450;2023-12-20T13:38:12;160.25;;;61.58;;
31238;SDS011;17871;31.584;74.450;2023-12-20T13:40:42;154.98;;;61.78;;
31238;SDS011;17871;31.584;74.450;2023-12-20T13:43:13;146.88;;;61.03;;
31238;SDS011;17871;31.584;74.450;2023-12-20T13:45:48;155.05;;;66.22;;
31238;SDS011;17871;31.584;74.450;2023-12-20T13:48:18;158.95;;;65.43;;
31238;SDS011;17871;31.584;74.450;2023-12-20T13:50:47;157.75;;;60.88;;
31238;SDS011;17871;31.584;74.450;2023-12-20T13:53:18;185.07;;;66.50;;
31238;SDS011;17871;31.584;74.450;2023-12-20T13:55:58;174.27;;;65.60;;
31238;SDS011;17871;31.584;74.450;2023-12-20T13:58:30;193.75;;;76.60;;
31238;SDS011;17871;31.584;74.450;2023-12-20T14:01:04;180.88;;;77.47;;
31238;SDS011;17871;31.584;74.450;2023-12-20T14:03:34;181.20;;;73.70;;
31238;SDS011;17871;31.584;74.450;2023-12-20T14:06:03;193.73;;;72.90;;
31238;SDS011;17871;31.584;74.450;2023-12-20T14:08:34;194.15;;;76.47;;
31238;SDS011;17871;31.584;74.450;2023-12-20T14:11:09;202.05;;;78.22;;
31238;SDS011;17871;31.584;74.450;2023-12-20T14:13:39;191.60;;;80.72;;
31238;SDS011;17871;31.584;74.450;2023-12-20T14:16:08;224.35;;;86.93;;
31238;SDS011;17871;31.584;74.450;2023-12-20T14:18:41;213.48;;;85.30;;
31238;SDS011;17871;31.584;74.450;2023-12-20T14:21:15;222.68;;;90.82;;